KACV/ACV METAR and TAF weather

Enter ICAO airport designator
Station Type Date Time Source
KACV METAR 2019/08/19 21:53 UTC NOAA

KACV 192153Z AUTO 31007KT 10SM FEW008 17/12 A3000 RMK AO2 SLP162 T01720122


Station Type Date Time Source
KACV Decoded METAR 2019/08/19 21:53 UTC NOAA

ARCATA/EUREKA ARCATA AIRPORT, CA, United States (KACV) 40-59N 124-06W 67M
Aug 19, 2019 - 05:53 PM EDT / 2019.08.19 2153 UTC
Wind: from the NW (310 degrees) at 8 MPH (7 KT):0
Visibility: 10 mile(s):0
Sky conditions: mostly clear
Temperature: 63.0 F (17.2 C)
Dew Point: 54.0 F (12.2 C)
Relative Humidity: 72%
Pressure (altimeter): 30 in. Hg (1015 hPa)
ob: KACV 192153Z AUTO 31007KT 10SM FEW008 17/12 A3000 RMK AO2 SLP162 T01720122
cycle: 22

Station Type Date Time Source
KACV TAF 2019/08/19 18:42 UTC NOAA

TAF KACV 191740Z 1918/2018 29007KT P6SM FEW020
FM200200 35004KT P6SM OVC008
FM200800 VRB02KT P6SM OVC003
FM201400 VRB04KT P6SM OVC006

Example: see airport list